Time;durP1;ratioP1;P1;durP2;ratioP2;P2;SDS_P1;SDS_P2;PMS_P1;PMS_P2;Temp;Humidity;BMP_temperature;BMP_pressure;BME280_temperature;BME280_humidity;BME280_pressure;Samples;Min_cycle;Max_cycle;Signal;HPM_P1;HPM_P2
2023/09/10 00:00:35;;;;;;;33.08;29.60;;;20.10;99.90;;;;;;5034614;28;20053;-70
2023/09/10 00:03:00;;;;;;;34.33;30.83;;;20.00;99.90;;;;;;5050201;28;20045;-70
2023/09/10 00:05:26;;;;;;;42.00;32.80;;;20.00;99.90;;;;;;5051040;28;20398;-69
2023/09/10 00:07:52;;;;;;;35.40;31.77;;;20.00;99.90;;;;;;5084457;28;20044;-70
2023/09/10 00:10:18;;;;;;;35.28;29.88;;;19.90;99.90;;;;;;5051747;28;20049;-69
2023/09/10 00:12:44;;;;;;;34.63;31.13;;;19.90;99.90;;;;;;5050762;28;20597;-69
2023/09/10 00:15:10;;;;;;;33.42;29.98;;;19.90;99.90;;;;;;5033689;28;20049;-69
2023/09/10 00:17:35;;;;;;;34.67;30.98;;;19.90;99.90;;;;;;5050654;28;20132;-69
2023/09/10 00:20:01;;;;;;;34.75;31.08;;;19.90;99.90;;;;;;5050162;28;20082;-70
2023/09/10 00:22:27;;;;;;;32.92;29.48;;;19.90;99.90;;;;;;5051908;28;20041;-70
2023/09/10 00:24:52;;;;;;;33.28;29.85;;;19.90;99.90;;;;;;5051664;28;20041;-70
2023/09/10 00:27:18;;;;;;;32.58;29.33;;;19.90;99.90;;;;;;5050299;28;20455;-70
2023/09/10 00:29:44;;;;;;;35.08;31.48;;;19.90;99.90;;;;;;5050723;28;20101;-70
2023/09/10 00:32:09;;;;;;;34.63;31.13;;;19.90;99.90;;;;;;5051457;28;20072;-70
2023/09/10 00:34:35;;;;;;;35.33;31.52;;;19.80;99.90;;;;;;5051586;28;20048;-70
2023/09/10 00:37:01;;;;;;;36.30;32.53;;;19.80;99.90;;;;;;5050235;28;20052;-70
2023/09/10 00:39:27;;;;;;;34.85;31.35;;;19.80;99.90;;;;;;5050479;28;20120;-70
2023/09/10 00:41:54;;;;;;;35.25;31.50;;;19.80;99.90;;;;;;5050406;28;20103;-69
2023/09/10 00:44:23;;;;;;;38.72;34.58;;;19.80;99.90;;;;;;5051191;28;20052;-70
2023/09/10 00:46:53;;;;;;;38.05;33.95;;;19.80;99.90;;;;;;5084433;28;20410;-70
2023/09/10 00:49:19;;;;;;;39.47;35.20;;;19.80;99.90;;;;;;5053640;28;20499;-70
2023/09/10 00:51:46;;;;;;;40.13;35.63;;;19.70;99.90;;;;;;5054399;28;20053;-69
2023/09/10 00:54:15;;;;;;;39.90;35.67;;;19.70;99.90;;;;;;5054772;28;20418;-70
2023/09/10 00:56:41;;;;;;;42.63;36.72;;;19.70;99.90;;;;;;5055144;28;20045;-70
2023/09/10 00:59:08;;;;;;;42.78;38.17;;;19.60;99.90;;;;;;5054608;28;20102;-70
2023/09/10 01:01:35;;;;;;;39.88;35.72;;;19.60;99.90;;;;;;5055080;28;20495;-70
2023/09/10 01:04:01;;;;;;;40.97;36.67;;;19.60;99.90;;;;;;5053923;28;20325;-70
2023/09/10 01:06:27;;;;;;;43.65;37.95;;;19.50;99.90;;;;;;5053288;28;20052;-70
2023/09/10 01:08:53;;;;;;;39.50;35.45;;;19.50;99.90;;;;;;5053768;28;20033;-70
2023/09/10 01:11:34;;;;;;;39.10;34.85;;;19.50;99.90;;;;;;5053460;28;20045;-70
2023/09/10 01:14:03;;;;;;;41.42;36.10;;;19.50;99.90;;;;;;5054003;28;20059;-70
2023/09/10 01:16:43;;;;;;;38.40;34.25;;;19.50;99.90;;;;;;5054304;28;20080;-70
2023/09/10 01:19:43;;;;;;;39.20;35.00;;;19.50;99.90;;;;;;5054522;28;20119;-69
2023/09/10 01:22:39;;;;;;;38.40;34.28;;;19.50;99.90;;;;;;5054186;28;20041;-70
2023/09/10 01:25:06;;;;;;;38.97;34.83;;;19.40;99.90;;;;;;5037435;28;20071;-70
2023/09/10 01:27:32;;;;;;;40.20;35.05;;;19.40;99.90;;;;;;5054777;28;20041;-70
2023/09/10 01:29:57;;;;;;;39.58;35.35;;;19.40;99.90;;;;;;5053464;28;20041;-70
2023/09/10 01:32:26;;;;;;;39.85;35.65;;;19.40;99.90;;;;;;5053301;28;20508;-69
2023/09/10 01:35:13;;;;;;;41.92;35.78;;;19.40;99.90;;;;;;5054331;28;20048;-70
2023/09/10 01:37:47;;;;;;;42.00;37.20;;;19.40;99.90;;;;;;5054501;28;20064;-70
2023/09/10 01:40:19;;;;;;;41.03;36.72;;;19.40;99.90;;;;;;5054003;28;20059;-69
2023/09/10 01:42:48;;;;;;;41.63;37.13;;;19.30;99.90;;;;;;5053400;28;20045;-70
2023/09/10 01:45:14;;;;;;;38.90;34.55;;;19.30;99.90;;;;;;5052885;28;20041;-70
2023/09/10 01:47:40;;;;;;;39.90;35.65;;;19.30;99.90;;;;;;5054100;28;20072;-70
2023/09/10 01:50:07;;;;;;;37.17;33.17;;;19.30;99.90;;;;;;5052943;28;20502;-69
2023/09/10 01:52:33;;;;;;;39.20;35.10;;;19.30;99.90;;;;;;5052423;28;20040;-70
2023/09/10 01:54:59;;;;;;;38.60;34.70;;;19.30;99.90;;;;;;5054335;28;20049;-70
2023/09/10 01:57:24;;;;;;;39.55;35.28;;;19.40;99.90;;;;;;5051961;28;20048;-70
2023/09/10 01:59:50;;;;;;;40.10;34.90;;;19.30;99.90;;;;;;5052877;28;20434;-70
2023/09/10 02:02:17;;;;;;;37.13;33.28;;;19.40;99.90;;;;;;5053781;28;20045;-70
2023/09/10 02:04:43;;;;;;;40.85;34.75;;;19.30;99.90;;;;;;5036223;28;20084;-69
2023/09/10 02:07:09;;;;;;;39.88;35.58;;;19.30;99.90;;;;;;5086377;28;20469;-69
2023/09/10 02:09:34;;;;;;;39.28;35.17;;;19.20;99.90;;;;;;5052228;28;20127;-69
2023/09/10 02:12:00;;;;;;;38.70;34.45;;;19.20;99.90;;;;;;5053699;28;20037;-70
2023/09/10 02:14:26;;;;;;;39.35;35.30;;;19.20;99.90;;;;;;5053272;28;20056;-69
2023/09/10 02:16:51;;;;;;;38.45;34.35;;;19.20;99.90;;;;;;5053762;28;20455;-69
2023/09/10 02:19:17;;;;;;;41.38;36.90;;;19.20;99.90;;;;;;5052050;28;20049;-70
2023/09/10 02:21:43;;;;;;;41.33;36.90;;;19.20;99.90;;;;;;5053154;28;20494;-70
2023/09/10 02:24:08;;;;;;;42.33;37.72;;;19.10;99.90;;;;;;5051906;28;20040;-70
2023/09/10 02:26:34;;;;;;;41.70;37.38;;;19.10;99.90;;;;;;5053134;28;20219;-70
2023/09/10 02:29:00;;;;;;;42.42;37.92;;;19.20;99.90;;;;;;5053377;28;20045;-70
2023/09/10 02:31:25;;;;;;;42.55;37.92;;;19.10;99.90;;;;;;5051613;28;20067;-70
2023/09/10 02:33:53;;;;;;;40.63;36.20;;;19.10;99.90;;;;;;5085938;28;20106;-70
2023/09/10 02:36:19;;;;;;;41.83;37.35;;;19.20;99.90;;;;;;5035412;28;20053;-70
2023/09/10 02:38:44;;;;;;;41.88;37.35;;;19.10;99.90;;;;;;5053575;28;20110;-70
2023/09/10 02:41:10;;;;;;;42.30;37.75;;;19.10;99.90;;;;;;5052006;28;20049;-70
2023/09/10 02:43:36;;;;;;;40.17;35.80;;;19.00;99.90;;;;;;5052793;28;20249;-72
2023/09/10 02:46:03;;;;;;;40.75;35.65;;;19.00;99.90;;;;;;5052003;28;20040;-70
2023/09/10 02:48:28;;;;;;;40.17;34.13;;;19.00;99.90;;;;;;5051390;28;20089;-69
2023/09/10 02:50:54;;;;;;;39.38;35.17;;;19.00;99.90;;;;;;5051920;28;20202;-70
2023/09/10 02:53:20;;;;;;;38.72;34.53;;;19.00;99.90;;;;;;5051318;28;20041;-74
2023/09/10 02:55:45;;;;;;;38.85;34.70;;;18.90;99.90;;;;;;5052822;28;20041;-70
2023/09/10 02:58:11;;;;;;;40.00;35.08;;;18.90;99.90;;;;;;5052859;28;20052;-70
2023/09/10 03:00:37;;;;;;;39.65;35.60;;;18.90;99.90;;;;;;5051625;28;20585;-70
2023/09/10 03:03:03;;;;;;;37.90;34.08;;;18.90;99.90;;;;;;5051643;28;20044;-70
2023/09/10 03:05:33;;;;;;;41.15;36.13;;;18.90;99.90;;;;;;5051432;28;20056;-70
2023/09/10 03:07:59;;;;;;;40.80;35.53;;;18.90;99.90;;;;;;5052806;28;20405;-70
2023/09/10 03:10:24;;;;;;;39.10;35.10;;;18.90;99.90;;;;;;5051999;28;20124;-70
2023/09/10 03:12:50;;;;;;;38.95;34.92;;;18.80;99.90;;;;;;5052630;28;20040;-70
2023/09/10 03:15:16;;;;;;;41.97;37.50;;;18.90;99.90;;;;;;5052572;28;20048;-69
2023/09/10 03:17:42;;;;;;;42.30;37.47;;;18.90;99.90;;;;;;5052181;28;20091;-69
2023/09/10 03:20:09;;;;;;;39.38;35.28;;;18.90;99.90;;;;;;5031351;28;20033;-69
2023/09/10 03:22:36;;;;;;;39.20;34.88;;;18.80;99.90;;;;;;5043806;28;20501;-70
2023/09/10 03:25:02;;;;;;;42.25;36.20;;;18.80;99.90;;;;;;5051398;28;20048;-70
2023/09/10 03:27:28;;;;;;;40.58;36.17;;;18.80;99.90;;;;;;5067890;28;20513;-70
2023/09/10 03:29:54;;;;;;;42.83;38.33;;;18.80;99.90;;;;;;5051151;28;20052;-69
2023/09/10 03:32:19;;;;;;;41.67;37.22;;;18.80;99.90;;;;;;5052224;28;20461;-69
2023/09/10 03:34:45;;;;;;;43.95;37.17;;;18.80;99.90;;;;;;5052051;28;20091;-69
2023/09/10 03:37:11;;;;;;;42.38;37.78;;;18.70;99.90;;;;;;5052147;28;20045;-69
2023/09/10 03:39:39;;;;;;;42.15;37.72;;;18.70;99.90;;;;;;5051820;28;20045;-69
2023/09/10 03:42:05;;;;;;;43.20;38.00;;;18.60;99.90;;;;;;5050696;28;20067;-70
2023/09/10 03:44:31;;;;;;;42.05;37.67;;;18.60;99.90;;;;;;5051967;28;20037;-69
2023/09/10 03:46:57;;;;;;;40.70;36.30;;;18.60;99.90;;;;;;5050499;28;20487;-70
2023/09/10 03:49:22;;;;;;;40.45;36.13;;;18.60;99.90;;;;;;5051178;28;20045;-69
2023/09/10 03:51:49;;;;;;;39.83;35.67;;;18.50;99.90;;;;;;5067364;28;20098;-70
2023/09/10 03:54:15;;;;;;;39.58;35.35;;;18.50;99.90;;;;;;5051896;28;20080;-69
2023/09/10 03:56:41;;;;;;;41.83;36.60;;;18.50;99.90;;;;;;5051739;28;20083;-69
2023/09/10 03:59:07;;;;;;;44.58;37.20;;;18.50;99.90;;;;;;5052095;28;20049;-70
2023/09/10 04:01:34;;;;;;;40.35;35.97;;;18.50;99.90;;;;;;5051547;28;20047;-70
2023/09/10 04:04:00;;;;;;;44.10;36.97;;;18.50;99.90;;;;;;5050600;28;20076;-70
2023/09/10 04:06:25;;;;;;;42.67;38.15;;;18.40;99.90;;;;;;5050749;28;20033;-69
2023/09/10 04:08:51;;;;;;;42.20;36.85;;;18.40;99.90;;;;;;5050748;28;20059;-69
2023/09/10 04:11:17;;;;;;;43.20;38.53;;;18.40;99.90;;;;;;5050878;28;20060;-69
2023/09/10 04:13:44;;;;;;;42.10;37.67;;;18.40;99.90;;;;;;5034066;28;20122;-69
2023/09/10 04:16:10;;;;;;;40.03;35.83;;;18.40;99.90;;;;;;5051517;28;20505;-69
2023/09/10 04:18:35;;;;;;;42.38;37.78;;;18.40;99.90;;;;;;5051641;28;20083;-69
2023/09/10 04:21:04;;;;;;;43.45;37.65;;;18.40;99.90;;;;;;5052741;28;20117;-70
2023/09/10 04:23:30;;;;;;;41.00;36.60;;;18.40;99.90;;;;;;5055483;28;20155;-70
2023/09/10 04:25:56;;;;;;;39.70;35.28;;;18.30;99.90;;;;;;5055777;28;20099;-71
2023/09/10 04:28:22;;;;;;;40.22;36.05;;;18.30;99.90;;;;;;5055899;28;20060;-69
2023/09/10 04:30:47;;;;;;;43.75;38.58;;;18.30;99.90;;;;;;5054416;28;20053;-69
2023/09/10 04:33:16;;;;;;;41.78;37.33;;;18.30;99.90;;;;;;5055388;28;20124;-70
2023/09/10 04:35:57;;;;;;;43.75;37.30;;;18.30;99.90;;;;;;5055137;28;20041;-69
2023/09/10 04:38:23;;;;;;;43.85;39.13;;;18.30;99.90;;;;;;5035828;28;20038;-69
2023/09/10 04:40:49;;;;;;;44.30;39.55;;;18.20;99.90;;;;;;5055227;28;20407;-69
2023/09/10 04:43:15;;;;;;;48.13;40.47;;;18.20;99.90;;;;;;5054180;28;20051;-69
2023/09/10 04:45:40;;;;;;;44.40;38.83;;;18.20;99.90;;;;;;5054729;28;20447;-69
2023/09/10 04:48:06;;;;;;;43.28;38.45;;;18.20;99.90;;;;;;5053903;28;20095;-69
2023/09/10 04:50:32;;;;;;;43.90;39.30;;;18.20;99.90;;;;;;5055140;28;20170;-69
2023/09/10 04:53:01;;;;;;;44.78;40.13;;;18.10;99.90;;;;;;5053988;28;20090;-70
2023/09/10 04:55:26;;;;;;;43.58;38.97;;;18.10;99.90;;;;;;5054937;28;20053;-70
2023/09/10 04:57:52;;;;;;;46.22;41.33;;;18.10;99.90;;;;;;5053397;28;20049;-70
2023/09/10 05:00:18;;;;;;;43.30;38.63;;;18.10;99.90;;;;;;5017529;28;20049;-69
2023/09/10 05:02:44;;;;;;;41.42;37.00;;;18.10;99.90;;;;;;5085407;28;20045;-69
2023/09/10 05:05:09;;;;;;;44.28;38.08;;;18.10;99.90;;;;;;5054937;28;20041;-70
2023/09/10 05:07:35;;;;;;;42.67;38.10;;;18.00;99.90;;;;;;5053510;28;20482;-75
2023/09/10 05:10:01;;;;;;;44.00;38.45;;;18.00;99.90;;;;;;5054969;28;20045;-70
2023/09/10 05:12:27;;;;;;;43.22;38.42;;;18.00;99.90;;;;;;5053532;28;20091;-70
2023/09/10 05:14:52;;;;;;;45.35;40.25;;;18.10;99.90;;;;;;5053561;28;20052;-70
2023/09/10 05:17:18;;;;;;;45.22;39.92;;;18.10;99.90;;;;;;5054130;28;20394;-71
2023/09/10 05:19:44;;;;;;;45.75;39.30;;;18.10;99.90;;;;;;5054291;28;20179;-70
2023/09/10 05:22:10;;;;;;;39.40;35.10;;;18.10;99.90;;;;;;5054652;28;20037;-69
2023/09/10 05:24:36;;;;;;;34.80;30.00;;;18.10;99.90;;;;;;5053222;28;20036;-69
2023/09/10 05:27:02;;;;;;;41.88;31.98;;;18.10;99.90;;;;;;5053950;28;20067;-69
2023/09/10 05:29:28;;;;;;;41.47;34.95;;;18.20;99.90;;;;;;5036858;28;20056;-69
2023/09/10 05:31:54;;;;;;;41.45;36.75;;;18.20;99.90;;;;;;5053809;28;20037;-69
2023/09/10 05:34:19;;;;;;;40.33;35.65;;;18.20;99.90;;;;;;5053615;28;20045;-70
2023/09/10 05:36:45;;;;;;;41.03;36.63;;;18.20;99.90;;;;;;5053919;28;20053;-70
2023/09/10 05:39:11;;;;;;;41.38;36.97;;;18.20;99.90;;;;;;5054405;28;20512;-70
2023/09/10 05:41:37;;;;;;;41.70;36.05;;;18.30;99.90;;;;;;5033154;28;20111;-70
2023/09/10 05:44:03;;;;;;;39.58;35.28;;;18.30;99.90;;;;;;5051972;28;20116;-70
2023/09/10 05:46:29;;;;;;;38.22;34.05;;;18.40;99.90;;;;;;5033275;28;20384;-68
2023/09/10 05:48:55;;;;;;;40.97;33.75;;;18.60;99.90;;;;;;5050238;28;20136;-70
2023/09/10 05:51:21;;;;;;;37.47;33.25;;;18.90;99.90;;;;;;5052981;28;20051;-69
2023/09/10 05:53:46;;;;;;;38.28;30.92;;;19.10;99.90;;;;;;5053472;28;20117;-70
2023/09/10 05:56:12;;;;;;;38.88;31.83;;;19.20;99.90;;;;;;5054216;28;20049;-70
2023/09/10 05:58:38;;;;;;;37.50;30.88;;;19.30;99.90;;;;;;5053914;28;20055;-70
2023/09/10 06:01:04;;;;;;;31.83;27.65;;;19.40;99.90;;;;;;5053508;28;20036;-69
2023/09/10 06:03:30;;;;;;;34.03;27.70;;;19.40;99.90;;;;;;5053484;28;20132;-70
2023/09/10 06:05:56;;;;;;;30.45;26.75;;;19.50;99.90;;;;;;5015663;28;20049;-70
2023/09/10 06:08:22;;;;;;;29.30;24.60;;;19.50;99.90;;;;;;5042322;28;20084;-69
2023/09/10 06:10:48;;;;;;;30.73;23.88;;;19.50;99.90;;;;;;5053355;28;20041;-71
2023/09/10 06:13:14;;;;;;;27.88;23.40;;;19.40;99.90;;;;;;5052734;28;20052;-70
2023/09/10 06:15:40;;;;;;;25.30;22.40;;;19.40;99.90;;;;;;5053510;28;20127;-70
2023/09/10 06:18:05;;;;;;;27.05;22.80;;;19.40;99.90;;;;;;5052208;28;20087;-70
2023/09/10 06:20:31;;;;;;;27.90;24.45;;;19.40;99.90;;;;;;5052603;28;20051;-70
2023/09/10 06:22:57;;;;;;;27.88;21.63;;;19.50;99.90;;;;;;5053089;28;20471;-70
2023/09/10 06:25:24;;;;;;;27.48;21.35;;;19.50;99.90;;;;;;5053205;28;20045;-70
2023/09/10 06:27:50;;;;;;;29.38;26.02;;;19.60;99.90;;;;;;5052861;28;20045;-69
2023/09/10 06:30:15;;;;;;;32.15;28.67;;;19.70;99.90;;;;;;5053372;28;20051;-69
2023/09/10 06:32:41;;;;;;;35.47;31.15;;;19.80;99.90;;;;;;5052266;28;20123;-70
2023/09/10 06:35:07;;;;;;;34.20;30.70;;;19.90;99.90;;;;;;5052522;28;20492;-70
2023/09/10 06:37:33;;;;;;;34.90;31.20;;;20.00;99.90;;;;;;5053332;28;20055;-70
2023/09/10 06:39:59;;;;;;;34.67;31.00;;;20.10;99.90;;;;;;5051866;28;20131;-71
2023/09/10 06:42:25;;;;;;;34.83;31.08;;;20.20;99.90;;;;;;5052747;28;20045;-70
2023/09/10 06:44:51;;;;;;;31.83;28.65;;;20.40;99.90;;;;;;5051667;28;20049;-70
2023/09/10 06:47:17;;;;;;;33.58;29.98;;;20.50;99.90;;;;;;5052579;28;20075;-70
2023/09/10 06:49:42;;;;;;;33.70;30.15;;;20.50;99.90;;;;;;5053026;28;20076;-70
2023/09/10 06:52:09;;;;;;;32.70;29.30;;;20.60;99.90;;;;;;5051248;28;20640;-70
2023/09/10 06:54:35;;;;;;;35.75;30.13;;;20.70;99.90;;;;;;5052253;28;20049;-70
2023/09/10 06:57:01;;;;;;;33.40;29.88;;;20.80;99.90;;;;;;5052319;28;20052;-74
2023/09/10 06:59:29;;;;;;;34.13;30.50;;;21.00;99.90;;;;;;5052801;28;20041;-70
2023/09/10 07:01:56;;;;;;;34.95;29.90;;;21.10;99.90;;;;;;5052345;28;20146;-70
2023/09/10 07:04:23;;;;;;;31.75;28.40;;;21.20;99.90;;;;;;5051734;28;20096;-70
2023/09/10 07:06:50;;;;;;;35.35;30.15;;;21.30;99.90;;;;;;5051770;28;20049;-69
2023/09/10 07:09:18;;;;;;;33.83;30.23;;;21.40;99.90;;;;;;5051502;28;20037;-70
2023/09/10 07:11:43;;;;;;;34.75;30.95;;;21.50;99.90;;;;;;5051662;28;20421;-69
2023/09/10 07:14:09;;;;;;;33.20;29.67;;;21.70;99.90;;;;;;5051974;28;20128;-69
2023/09/10 07:16:35;;;;;;;34.75;30.70;;;21.90;99.90;;;;;;5052191;28;20053;-70
2023/09/10 07:19:01;;;;;;;34.13;30.25;;;22.20;99.90;;;;;;5034263;28;20048;-70
2023/09/10 07:21:27;;;;;;;33.65;30.15;;;22.50;99.90;;;;;;5050984;28;20041;-70
2023/09/10 07:23:53;;;;;;;34.35;30.50;;;22.70;99.90;;;;;;5050974;28;20077;-74
2023/09/10 07:26:19;;;;;;;33.15;29.85;;;22.80;99.90;;;;;;5052337;28;20075;-69
2023/09/10 07:28:45;;;;;;;33.17;29.58;;;22.90;99.90;;;;;;5052447;28;20122;-69
2023/09/10 07:31:10;;;;;;;31.05;27.95;;;22.90;99.90;;;;;;5051367;28;20048;-70
2023/09/10 07:33:36;;;;;;;30.85;27.75;;;23.00;99.90;;;;;;5051056;28;20065;-69
2023/09/10 07:36:02;;;;;;;30.90;27.48;;;23.10;99.90;;;;;;5051768;28;20049;-70
2023/09/10 07:38:28;;;;;;;29.75;26.65;;;23.00;99.90;;;;;;5051931;28;20364;-70
2023/09/10 07:40:54;;;;;;;28.40;25.35;;;23.10;99.90;;;;;;5052251;28;20095;-70
2023/09/10 07:43:22;;;;;;;30.88;26.88;;;23.20;99.90;;;;;;5051516;28;20041;-71
2023/09/10 07:45:49;;;;;;;27.48;24.67;;;23.60;99.90;;;;;;5051854;28;20406;-70
2023/09/10 07:48:15;;;;;;;31.80;24.92;;;24.20;99.90;;;;;;5050220;28;20057;-70
2023/09/10 07:50:42;;;;;;;26.73;23.98;;;24.90;99.90;;;;;;5051775;28;20041;-70
2023/09/10 07:53:07;;;;;;;25.23;22.70;;;25.60;99.90;;;;;;5051503;28;20048;-70
2023/09/10 07:55:36;;;;;;;25.92;23.27;;;26.20;99.90;;;;;;5067117;28;20045;-69
2023/09/10 07:58:03;;;;;;;23.83;20.70;;;26.70;99.90;;;;;;5050438;28;20048;-69
2023/09/10 08:00:31;;;;;;;26.15;20.75;;;27.10;99.90;;;;;;5051946;28;20132;-69
2023/09/10 08:03:02;;;;;;;24.20;21.42;;;27.60;99.90;;;;;;5034116;28;20496;-69
2023/09/10 08:05:28;;;;;;;21.98;19.77;;;28.10;99.90;;;;;;5052010;28;20107;-69
2023/09/10 08:07:53;;;;;;;21.63;19.30;;;28.70;99.90;;;;;;5051881;28;20045;-70
2023/09/10 08:10:19;;;;;;;20.25;18.13;;;29.10;99.90;;;;;;5051799;28;20132;-69
2023/09/10 08:12:45;;;;;;;20.65;18.05;;;29.30;99.90;;;;;;5050697;28;20056;-69
2023/09/10 08:15:11;;;;;;;20.35;16.63;;;29.50;99.90;;;;;;5049901;28;20102;-70
2023/09/10 08:17:37;;;;;;;18.67;16.75;;;30.10;99.90;;;;;;5051516;28;20052;-70
2023/09/10 08:20:05;;;;;;;17.67;15.85;;;30.30;99.90;;;;;;5050328;28;20037;-71
2023/09/10 08:22:31;;;;;;;19.15;15.60;;;30.60;99.70;;;;;;5051660;28;20051;-70
2023/09/10 08:24:56;;;;;;;15.80;13.98;;;30.90;99.20;;;;;;5051723;28;20120;-70
2023/09/10 08:27:22;;;;;;;14.13;12.73;;;31.20;99.00;;;;;;5029840;28;20514;-70
2023/09/10 08:29:48;;;;;;;15.00;12.63;;;31.20;98.50;;;;;;5048361;28;20060;-70
2023/09/10 08:32:14;;;;;;;15.27;13.05;;;31.30;98.10;;;;;;5051081;28;20037;-69
2023/09/10 08:34:39;;;;;;;16.05;13.60;;;31.30;97.80;;;;;;5050687;28;20171;-70
2023/09/10 08:37:09;;;;;;;15.13;13.10;;;31.40;97.50;;;;;;5051032;28;20056;-70
2023/09/10 08:39:36;;;;;;;13.63;12.05;;;31.50;97.50;;;;;;5050666;28;20060;-70
2023/09/10 08:42:23;;;;;;;16.13;12.93;;;31.70;97.20;;;;;;5051561;28;20509;-72
2023/09/10 08:44:59;;;;;;;13.93;10.80;;;32.00;96.70;;;;;;5050596;28;20063;-70
2023/09/10 08:47:29;;;;;;;12.82;11.63;;;32.20;95.90;;;;;;5050830;28;20049;-71
2023/09/10 08:50:06;;;;;;;14.88;10.65;;;32.30;96.50;;;;;;5051294;28;20637;-69
2023/09/10 08:52:34;;;;;;;11.63;10.40;;;32.40;96.40;;;;;;5051069;28;20542;-70
2023/09/10 08:55:00;;;;;;;11.93;10.43;;;32.50;96.30;;;;;;5050614;28;20393;-70
2023/09/10 08:57:29;;;;;;;12.10;10.75;;;32.50;96.30;;;;;;5047727;28;20037;-70
2023/09/10 08:59:56;;;;;;;13.13;9.48;;;32.60;96.20;;;;;;5041501;28;20463;-69
2023/09/10 09:02:22;;;;;;;12.23;9.65;;;32.50;95.80;;;;;;5050991;28;20517;-70
2023/09/10 09:04:47;;;;;;;16.25;10.50;;;32.70;95.70;;;;;;5051523;28;20057;-70
2023/09/10 09:07:15;;;;;;;11.00;9.85;;;32.70;95.90;;;;;;5050939;28;20048;-70
2023/09/10 09:09:44;;;;;;;10.50;8.65;;;32.70;96.10;;;;;;5054829;28;20048;-69
2023/09/10 09:12:11;;;;;;;10.80;8.93;;;32.70;95.90;;;;;;5054568;28;20045;-69
2023/09/10 09:14:42;;;;;;;11.68;10.00;;;32.90;95.70;;;;;;5053705;28;20045;-69
2023/09/10 09:17:12;;;;;;;16.65;10.68;;;33.00;95.30;;;;;;5054419;28;20079;-73
2023/09/10 09:19:40;;;;;;;12.82;9.30;;;32.90;95.40;;;;;;5054677;28;20041;-69
2023/09/10 09:22:07;;;;;;;10.88;8.70;;;32.70;95.70;;;;;;5054851;28;20132;-69
2023/09/10 09:24:34;;;;;;;11.20;8.70;;;32.20;95.90;;;;;;5086713;28;20154;-69
2023/09/10 09:27:03;;;;;;;13.65;9.52;;;31.70;96.00;;;;;;5053642;28;20175;-70
2023/09/10 09:29:30;;;;;;;13.98;8.45;;;31.30;96.30;;;;;;5053215;28;20503;-70
2023/09/10 09:31:56;;;;;;;8.68;6.90;;;30.90;96.40;;;;;;5053397;28;20053;-69
2023/09/10 09:34:22;;;;;;;10.40;7.38;;;30.40;96.90;;;;;;5052659;28;20490;-70
2023/09/10 09:36:51;;;;;;;10.32;7.80;;;30.20;97.10;;;;;;5054018;28;20056;-70
2023/09/10 09:39:20;;;;;;;10.73;8.02;;;30.00;97.20;;;;;;5053915;28;20045;-70
2023/09/10 09:41:53;;;;;;;14.15;8.25;;;29.70;97.40;;;;;;5054256;28;20131;-69
2023/09/10 09:44:19;;;;;;;;;;;29.60;97.70;;;;;;5054308;28;20051;-70
2023/09/10 09:46:46;;;;;;;10.50;9.00;;;29.50;97.70;;;;;;5054092;28;19925;-70
2023/09/10 09:49:12;;;;;;;12.57;8.75;;;29.30;97.80;;;;;;5052927;28;20179;-72
2023/09/10 09:51:40;;;;;;;10.13;7.57;;;29.10;98.00;;;;;;5054197;28;20056;-70
2023/09/10 09:54:08;;;;;;;11.45;8.70;;;29.00;98.20;;;;;;5054080;28;20131;-69
2023/09/10 09:56:37;;;;;;;8.63;7.15;;;28.90;98.30;;;;;;5086322;28;20045;-69
2023/09/10 09:59:03;;;;;;;10.13;7.53;;;28.90;98.20;;;;;;5052804;28;20181;-71
2023/09/10 10:01:28;;;;;;;10.68;7.45;;;28.90;98.20;;;;;;5053609;28;20131;-70
2023/09/10 10:03:56;;;;;;;13.45;8.60;;;28.80;98.40;;;;;;5052666;28;20389;-69
2023/09/10 10:06:22;;;;;;;9.48;7.63;;;28.70;98.50;;;;;;5053504;28;20037;-70
2023/09/10 10:08:49;;;;;;;13.00;8.32;;;28.90;98.50;;;;;;5053931;28;20402;-69
2023/09/10 10:11:33;;;;;;;14.52;8.00;;;28.90;98.50;;;;;;5053227;28;20057;-70
2023/09/10 10:14:00;;;;;;;12.60;8.32;;;28.80;98.50;;;;;;5069537;28;20040;-70
2023/09/10 10:16:28;;;;;;;11.15;6.78;;;28.70;98.60;;;;;;5032549;28;20068;-70
2023/09/10 10:18:55;;;;;;;9.93;7.72;;;28.60;98.90;;;;;;5044286;28;20048;-69
2023/09/10 10:21:24;;;;;;;8.50;6.95;;;28.60;98.90;;;;;;5085612;28;20055;-70
2023/09/10 10:23:56;;;;;;;9.65;6.60;;;28.60;98.90;;;;;;5053546;28;20045;-69
2023/09/10 10:26:23;;;;;;;10.23;6.38;;;28.60;99.30;;;;;;5051798;28;20079;-70
2023/09/10 10:28:49;;;;;;;8.45;7.38;;;28.70;99.30;;;;;;5053564;28;20049;-69
2023/09/10 10:31:39;;;;;;;10.40;7.78;;;28.80;99.30;;;;;;5052290;28;20103;-70
2023/09/10 10:34:16;;;;;;;11.30;8.60;;;28.90;99.10;;;;;;5039822;28;20102;-71
2023/09/10 10:36:59;;;;;;;10.55;7.75;;;28.80;99.10;;;;;;5052808;28;20102;-70
2023/09/10 10:39:37;;;;;;;9.68;8.38;;;28.80;99.30;;;;;;5053059;28;20060;-70
2023/09/10 10:42:07;;;;;;;14.82;7.90;;;28.80;99.10;;;;;;5052054;28;20531;-70
2023/09/10 10:44:37;;;;;;;9.65;7.50;;;28.70;99.40;;;;;;5051491;28;20038;-70
2023/09/10 10:47:17;;;;;;;13.80;7.28;;;28.70;99.10;;;;;;5052558;28;20060;-70
2023/09/10 10:49:54;;;;;;;11.93;7.20;;;28.80;99.10;;;;;;5052458;28;20045;-70
2023/09/10 10:52:32;;;;;;;12.23;8.23;;;28.80;99.10;;;;;;5052385;28;20435;-74
2023/09/10 10:54:58;;;;;;;11.95;8.00;;;28.80;99.10;;;;;;5052998;28;20048;-70
2023/09/10 10:57:27;;;;;;;12.60;7.65;;;28.80;99.40;;;;;;5052364;28;20170;-70
2023/09/10 10:59:53;;;;;;;11.50;8.15;;;28.80;99.40;;;;;;5052834;28;20140;-70
2023/09/10 11:02:23;;;;;;;11.70;7.47;;;28.80;99.50;;;;;;5051257;28;20045;-70
2023/09/10 11:05:00;;;;;;;10.75;7.30;;;28.80;99.50;;;;;;5052850;28;20056;-69
2023/09/10 11:07:29;;;;;;;9.63;7.25;;;28.80;99.80;;;;;;5051901;28;20079;-69
2023/09/10 11:10:19;;;;;;;18.55;6.65;;;28.90;99.60;;;;;;5052760;28;20048;-69
2023/09/10 11:13:07;;;;;;;17.55;7.53;;;29.00;99.30;;;;;;5031315;28;20049;-70
2023/09/10 11:15:33;;;;;;;12.73;7.32;;;29.00;99.10;;;;;;5052272;28;20491;-70
2023/09/10 11:18:36;;;;;;;9.55;6.88;;;29.00;99.40;;;;;;5052516;28;20059;-70
2023/09/10 11:21:14;;;;;;;10.20;7.10;;;29.10;99.20;;;;;;5052199;28;20060;-70
2023/09/10 11:24:06;;;;;;;11.55;6.35;;;29.10;99.10;;;;;;5051937;28;20041;-70
2023/09/10 11:26:31;;;;;;;10.48;7.40;;;29.10;99.10;;;;;;5050746;28;20045;-70
2023/09/10 11:28:59;;;;;;;13.75;6.18;;;29.10;99.10;;;;;;5052356;28;20131;-70
2023/09/10 11:31:45;;;;;;;18.42;7.70;;;29.00;99.10;;;;;;5066665;28;20049;-70
2023/09/10 11:34:17;;;;;;;10.18;7.10;;;29.00;99.20;;;;;;5052316;28;20045;-70
2023/09/10 11:36:44;;;;;;;13.63;7.03;;;29.10;99.40;;;;;;5051591;28;20041;-69
2023/09/10 11:39:11;;;;;;;7.90;6.13;;;29.00;99.40;;;;;;5052200;28;20375;-69
2023/09/10 11:41:37;;;;;;;9.35;6.07;;;29.00;99.40;;;;;;5050359;28;20049;-70
2023/09/10 11:44:03;;;;;;;12.15;6.57;;;29.00;99.50;;;;;;5050459;28;20044;-67
2023/09/10 11:46:29;;;;;;;9.75;6.78;;;29.00;99.60;;;;;;5041493;28;20040;-67
2023/09/10 11:48:55;;;;;;;13.65;6.78;;;29.10;99.50;;;;;;5043808;28;20060;-67
2023/09/10 11:51:20;;;;;;;11.02;6.57;;;29.20;99.40;;;;;;5043765;28;20045;-68
2023/09/10 11:53:46;;;;;;;12.23;6.32;;;29.30;99.40;;;;;;5051211;28;20463;-68
2023/09/10 11:56:12;;;;;;;14.18;6.93;;;29.40;99.30;;;;;;5050011;28;20044;-69
2023/09/10 11:58:38;;;;;;;12.85;6.47;;;29.50;99.20;;;;;;5050646;28;20083;-68
2023/09/10 12:01:04;;;;;;;10.05;6.18;;;29.40;99.20;;;;;;5030897;28;20052;-67
2023/09/10 12:03:33;;;;;;;10.18;6.82;;;29.40;99.10;;;;;;5043584;28;20044;-70
2023/09/10 12:05:59;;;;;;;8.02;6.50;;;29.40;99.30;;;;;;5045071;28;20048;-67
2023/09/10 12:08:25;;;;;;;10.32;6.72;;;29.50;99.30;;;;;;5029897;28;20058;-67
2023/09/10 12:10:54;;;;;;;12.80;6.63;;;29.50;99.10;;;;;;5047217;28;20074;-66
2023/09/10 12:13:20;;;;;;;10.30;6.75;;;29.50;99.10;;;;;;5044896;28;20116;-68
2023/09/10 12:15:46;;;;;;;10.15;6.03;;;29.40;99.40;;;;;;5026253;28;20475;-69
2023/09/10 12:18:12;;;;;;;10.55;7.10;;;29.40;99.50;;;;;;5043977;28;20113;-67
2023/09/10 12:20:38;;;;;;;14.82;7.32;;;29.40;99.60;;;;;;5039037;28;20065;-68
2023/09/10 12:23:05;;;;;;;10.52;6.03;;;29.40;99.60;;;;;;5041789;28;20041;-70
2023/09/10 12:25:30;;;;;;;12.48;7.13;;;29.30;99.80;;;;;;5041162;28;20033;-68
2023/09/10 12:27:57;;;;;;;10.30;7.03;;;29.40;99.70;;;;;;5023203;28;20048;-67
2023/09/10 12:30:23;;;;;;;18.40;6.72;;;29.40;99.80;;;;;;5040099;28;20383;-68
2023/09/10 12:32:50;;;;;;;11.88;7.53;;;29.40;99.90;;;;;;5047126;28;20067;-67